createdAt,value
2019-05-19T00:01:31.785Z,2.90
2019-05-19T00:04:01.463Z,3.17
2019-05-19T00:06:31.139Z,2.67
2019-05-19T00:09:00.873Z,2.52
2019-05-19T00:11:30.573Z,3.12
2019-05-19T00:14:00.260Z,3.15
2019-05-19T00:16:29.945Z,2.98
2019-05-19T00:18:59.638Z,3.47
2019-05-19T00:21:29.373Z,3.15
2019-05-19T00:23:59.863Z,3.35
2019-05-19T00:26:29.913Z,4.10
2019-05-19T00:28:59.505Z,4.22
2019-05-19T00:31:29.218Z,4.25
2019-05-19T00:33:58.706Z,4.62
2019-05-19T00:36:28.328Z,5.03
2019-05-19T00:38:57.920Z,6.05
2019-05-19T00:41:27.519Z,6.67
2019-05-19T00:43:57.250Z,9.83
2019-05-19T00:46:27.009Z,8.53
2019-05-19T00:48:56.657Z,11.05
2019-05-19T00:51:26.539Z,8.08
2019-05-19T00:53:56.333Z,8.00
2019-05-19T00:56:26.661Z,8.03
2019-05-19T00:58:58.080Z,8.60
2019-05-19T01:01:27.730Z,7.85
2019-05-19T01:03:57.441Z,6.80
2019-05-19T01:06:27.060Z,11.57
2019-05-19T01:08:56.725Z,10.95
2019-05-19T01:11:26.320Z,7.50
2019-05-19T01:13:56.048Z,4.50
2019-05-19T01:16:25.680Z,8.40
2019-05-19T01:18:55.303Z,13.40
2019-05-19T01:21:25.616Z,12.50
2019-05-19T01:23:55.374Z,10.30
2019-05-19T01:26:25.000Z,10.23
2019-05-19T01:28:54.723Z,10.88
2019-05-19T01:31:24.499Z,10.70
2019-05-19T01:33:54.389Z,11.00
2019-05-19T01:36:24.091Z,9.38
2019-05-19T01:38:53.683Z,8.53
2019-05-19T01:41:23.470Z,6.40
2019-05-19T01:43:53.313Z,5.37
2019-05-19T01:46:22.947Z,5.10
2019-05-19T01:48:52.622Z,5.10
2019-05-19T01:51:22.399Z,4.97
2019-05-19T01:53:52.044Z,4.65
2019-05-19T01:56:21.689Z,4.90
2019-05-19T01:58:51.516Z,4.67
2019-05-19T02:01:24.156Z,4.95
2019-05-19T02:03:53.892Z,4.65
2019-05-19T02:06:23.545Z,5.00
2019-05-19T02:08:53.347Z,5.20
2019-05-19T02:11:23.097Z,5.15
2019-05-19T02:13:52.842Z,4.90
2019-05-19T02:16:22.446Z,5.15
2019-05-19T02:18:52.142Z,5.80
2019-05-19T02:21:21.792Z,5.90
2019-05-19T02:23:51.511Z,6.08
2019-05-19T02:26:21.314Z,5.53
2019-05-19T02:28:50.969Z,5.37
2019-05-19T02:31:20.878Z,5.90
2019-05-19T02:33:50.444Z,7.42
2019-05-19T02:36:20.182Z,6.80
2019-05-19T02:38:49.893Z,6.80
2019-05-19T02:41:22.033Z,7.20
2019-05-19T02:46:22.701Z,6.15
2019-05-19T02:48:54.337Z,6.70
2019-05-19T02:51:27.013Z,7.10
2019-05-19T02:53:57.302Z,7.65
2019-05-19T02:56:29.551Z,7.37
2019-05-19T02:59:01.220Z,7.08
2019-05-19T03:01:30.995Z,7.33
2019-05-19T03:04:00.784Z,6.95
2019-05-19T03:06:30.523Z,7.55
2019-05-19T03:09:00.190Z,7.42
2019-05-19T03:11:29.782Z,8.55
2019-05-19T03:13:59.417Z,7.80
2019-05-19T03:16:29.203Z,8.28
2019-05-19T03:18:58.799Z,8.43
2019-05-19T03:21:28.566Z,9.38
2019-05-19T03:23:58.285Z,7.10
2019-05-19T03:26:27.913Z,7.40
2019-05-19T03:28:58.051Z,7.62
2019-05-19T03:31:29.449Z,6.50
2019-05-19T03:34:00.498Z,8.00
2019-05-19T03:38:59.359Z,7.92
2019-05-19T03:41:30.163Z,7.60
2019-05-19T03:44:00.477Z,7.40
2019-05-19T03:46:30.600Z,8.20
2019-05-19T03:49:00.602Z,7.87
2019-05-19T03:51:31.970Z,8.08
2019-05-19T03:54:02.621Z,10.88
2019-05-19T03:56:33.138Z,9.20
2019-05-19T03:59:03.552Z,10.78
2019-05-19T04:01:33.672Z,8.48
2019-05-19T04:04:03.959Z,9.28
2019-05-19T04:06:34.150Z,9.43
2019-05-19T04:09:05.703Z,9.33
2019-05-19T04:11:35.968Z,9.33
2019-05-19T04:14:06.294Z,9.70
2019-05-19T04:16:36.298Z,9.78
2019-05-19T04:19:06.301Z,11.48
2019-05-19T04:21:48.054Z,10.45
2019-05-19T04:24:08.641Z,10.25
2019-05-19T04:26:38.823Z,8.90
2019-05-19T04:29:09.087Z,8.93
2019-05-19T04:31:39.364Z,9.45
2019-05-19T04:34:09.559Z,8.03
2019-05-19T04:36:39.626Z,7.90
2019-05-19T04:39:09.802Z,7.97
2019-05-19T04:41:41.109Z,8.68
2019-05-19T04:44:11.337Z,8.15
2019-05-19T04:46:41.434Z,8.35
2019-05-19T04:49:11.706Z,8.60
2019-05-19T04:51:41.877Z,9.03
2019-05-19T04:54:11.876Z,8.35
2019-05-19T04:56:42.057Z,8.48
2019-05-19T04:59:12.399Z,8.45
2019-05-19T05:01:42.748Z,8.13
2019-05-19T05:04:12.856Z,6.62
2019-05-19T05:06:43.141Z,6.40
2019-05-19T05:09:13.518Z,8.15
2019-05-19T05:11:43.682Z,7.30
2019-05-19T05:14:14.122Z,3.42
2019-05-19T05:16:44.155Z,3.70
2019-05-19T05:19:14.128Z,3.77
2019-05-19T05:21:44.163Z,4.30
2019-05-19T05:24:14.156Z,3.92
2019-05-19T05:26:44.188Z,3.80
2019-05-19T05:29:14.196Z,3.70
2019-05-19T05:31:44.485Z,3.92
2019-05-19T05:34:14.814Z,3.98
2019-05-19T05:36:44.966Z,3.62
2019-05-19T05:39:14.961Z,3.65
2019-05-19T05:41:45.104Z,3.75
2019-05-19T05:44:15.555Z,3.40
2019-05-19T05:46:45.983Z,3.62
2019-05-19T05:49:16.371Z,4.72
2019-05-19T05:51:46.428Z,5.83
2019-05-19T05:54:16.603Z,4.42
2019-05-19T05:56:47.815Z,4.35
2019-05-19T05:59:18.183Z,5.40
2019-05-19T06:01:48.539Z,4.33
2019-05-19T06:04:18.809Z,4.87
2019-05-19T06:06:49.080Z,4.12
2019-05-19T06:11:48.204Z,4.08
2019-05-19T06:14:18.295Z,4.72
2019-05-19T06:16:48.581Z,5.75
2019-05-19T06:19:18.651Z,5.15
2019-05-19T06:21:48.824Z,5.00
2019-05-19T06:24:19.094Z,6.30
2019-05-19T06:26:49.211Z,7.15
2019-05-19T06:29:19.536Z,4.40
2019-05-19T06:31:49.832Z,6.50
2019-05-19T06:34:19.927Z,7.90
2019-05-19T06:36:50.172Z,4.80
2019-05-19T06:39:20.493Z,4.87
2019-05-19T06:41:50.615Z,4.58
2019-05-19T06:44:20.673Z,5.75
2019-05-19T06:46:50.951Z,4.50
2019-05-19T06:49:21.165Z,3.37
2019-05-19T06:51:51.357Z,3.90
2019-05-19T06:54:21.632Z,4.17
2019-05-19T06:56:51.777Z,4.67
2019-05-19T06:59:21.973Z,8.85
2019-05-19T07:01:52.358Z,4.30
2019-05-19T07:04:22.525Z,3.65
2019-05-19T07:06:53.082Z,3.58
2019-05-19T07:09:23.383Z,3.47
2019-05-19T07:11:53.867Z,3.10
2019-05-19T07:14:24.142Z,3.58
2019-05-19T07:16:54.466Z,3.40
2019-05-19T07:19:24.568Z,4.10
2019-05-19T07:21:54.804Z,4.47
2019-05-19T07:24:25.210Z,3.92
2019-05-19T07:26:55.457Z,4.30
2019-05-19T07:29:25.711Z,4.90
2019-05-19T07:31:55.829Z,4.40
2019-05-19T07:34:25.978Z,5.33
2019-05-19T07:36:56.013Z,5.92
2019-05-19T07:39:26.360Z,8.68
2019-05-19T07:41:56.472Z,8.10
2019-05-19T07:44:26.836Z,8.55
2019-05-19T07:46:56.944Z,8.58
2019-05-19T07:49:27.103Z,8.55
2019-05-19T07:51:57.435Z,9.73
2019-05-19T07:54:27.500Z,9.70
2019-05-19T07:56:57.716Z,9.03
2019-05-19T07:59:27.807Z,9.08
2019-05-19T08:01:58.063Z,9.15
2019-05-19T08:04:28.156Z,8.55
2019-05-19T08:06:58.104Z,10.90
2019-05-19T08:09:28.448Z,11.05
2019-05-19T08:14:27.850Z,12.75
2019-05-19T08:16:57.832Z,14.05
2019-05-19T08:19:28.256Z,12.68
2019-05-19T08:21:58.617Z,13.93
2019-05-19T08:24:28.740Z,14.50
2019-05-19T08:26:59.072Z,11.80
2019-05-19T08:29:29.381Z,13.78
2019-05-19T08:31:59.611Z,11.75
2019-05-19T08:34:29.999Z,13.05
2019-05-19T08:37:00.069Z,12.60
2019-05-19T08:39:30.142Z,11.35
2019-05-19T08:42:00.385Z,10.78
2019-05-19T08:44:30.650Z,11.30
2019-05-19T08:47:01.254Z,9.70
2019-05-19T08:49:31.645Z,9.53
2019-05-19T08:52:01.845Z,12.63
2019-05-19T08:54:32.115Z,10.45
2019-05-19T08:57:02.196Z,16.23
2019-05-19T08:59:32.162Z,15.35
2019-05-19T09:02:02.478Z,14.95
2019-05-19T09:04:32.744Z,11.73
2019-05-19T09:07:03.141Z,11.68
2019-05-19T09:09:33.437Z,9.68
2019-05-19T09:12:03.695Z,11.30
2019-05-19T09:14:34.062Z,11.18
2019-05-19T09:17:04.385Z,8.70
2019-05-19T09:19:34.651Z,9.40
2019-05-19T09:22:04.885Z,8.30
2019-05-19T09:24:37.259Z,8.60
2019-05-19T09:27:07.047Z,8.40
2019-05-19T09:29:37.263Z,7.85
2019-05-19T09:32:07.741Z,6.70
2019-05-19T09:34:38.085Z,7.60
2019-05-19T09:37:08.182Z,7.53
2019-05-19T09:39:38.169Z,6.90
2019-05-19T09:42:08.439Z,5.92
2019-05-19T09:44:38.652Z,5.78
2019-05-19T09:47:08.831Z,5.90
2019-05-19T09:49:38.996Z,5.45
2019-05-19T09:52:09.675Z,5.05
2019-05-19T09:54:45.132Z,5.75
2019-05-19T09:57:11.859Z,5.50
2019-05-19T09:59:42.249Z,6.25
2019-05-19T10:02:12.384Z,4.55
2019-05-19T10:04:42.398Z,4.78
2019-05-19T10:07:12.765Z,3.80
2019-05-19T10:09:58.673Z,4.00
2019-05-19T10:12:30.205Z,4.53
2019-05-19T10:15:00.655Z,4.20
2019-05-19T10:17:31.161Z,3.85
2019-05-19T10:20:01.292Z,3.62
2019-05-19T10:22:31.643Z,2.90
2019-05-19T10:25:20.230Z,4.22
2019-05-19T10:27:33.875Z,3.70
2019-05-19T10:30:05.530Z,3.58
2019-05-19T10:32:35.527Z,4.45
2019-05-19T10:35:07.532Z,4.60
2019-05-19T10:37:37.891Z,3.10
2019-05-19T10:40:08.640Z,3.15
2019-05-19T10:42:38.876Z,3.10
2019-05-19T10:45:11.596Z,3.62
2019-05-19T10:47:41.809Z,4.12
2019-05-19T10:50:12.387Z,3.77
2019-05-19T10:52:42.497Z,3.60
2019-05-19T10:55:12.770Z,3.58
2019-05-19T10:57:42.991Z,3.52
2019-05-19T11:00:14.857Z,4.12
2019-05-19T11:02:45.128Z,4.28
2019-05-19T11:05:15.629Z,4.50
2019-05-19T11:07:45.764Z,3.92
2019-05-19T11:10:16.351Z,4.30
2019-05-19T11:12:47.058Z,3.85
2019-05-19T11:15:18.835Z,4.33
2019-05-19T11:17:49.123Z,4.22
2019-05-19T11:20:19.284Z,3.58
2019-05-19T11:22:49.627Z,4.33
2019-05-19T11:25:33.014Z,3.60
2019-05-19T11:30:21.237Z,3.65
2019-05-19T11:32:51.473Z,3.40
2019-05-19T11:35:21.895Z,3.58
2019-05-19T11:37:52.246Z,3.58
2019-05-19T11:40:22.677Z,3.27
2019-05-19T11:42:52.897Z,3.50
2019-05-19T11:45:23.242Z,3.08
2019-05-19T11:47:53.354Z,3.20
2019-05-19T11:50:23.669Z,2.95
2019-05-19T11:52:53.954Z,3.02
2019-05-19T11:55:24.351Z,3.20
2019-05-19T11:57:54.752Z,3.40
2019-05-19T12:00:25.048Z,3.10
2019-05-19T12:02:55.352Z,3.30
2019-05-19T12:05:25.816Z,3.22
2019-05-19T12:07:55.929Z,2.90
2019-05-19T12:10:26.065Z,2.80
2019-05-19T12:12:56.425Z,2.50
2019-05-19T12:15:26.758Z,2.60
2019-05-19T12:17:56.998Z,2.92
2019-05-19T12:20:27.333Z,2.50
2019-05-19T12:22:57.502Z,2.08
2019-05-19T12:25:27.902Z,2.62
2019-05-19T12:27:58.179Z,2.30
2019-05-19T12:30:28.239Z,2.40
2019-05-19T12:32:59.403Z,1.90
2019-05-19T12:35:29.602Z,2.20
2019-05-19T12:37:59.808Z,2.20
2019-05-19T12:40:30.175Z,2.10
2019-05-19T12:43:00.400Z,2.10
2019-05-19T12:45:30.707Z,1.80
2019-05-19T12:48:01.052Z,2.10
2019-05-19T12:50:31.411Z,2.00
2019-05-19T12:53:01.635Z,1.82
2019-05-19T12:55:31.896Z,1.87
2019-05-19T12:58:02.349Z,1.95
2019-05-19T13:00:32.523Z,2.08
2019-05-19T13:03:02.893Z,1.87
2019-05-19T13:05:33.152Z,1.72
2019-05-19T13:08:03.384Z,1.70
2019-05-19T13:10:33.478Z,1.85
2019-05-19T13:13:03.589Z,1.60
2019-05-19T13:15:33.783Z,1.65
2019-05-19T13:18:04.098Z,1.40
2019-05-19T13:20:34.373Z,1.75
2019-05-19T13:23:04.681Z,1.70
2019-05-19T13:25:35.011Z,1.70
2019-05-19T13:28:05.242Z,1.65
2019-05-19T13:30:35.473Z,1.52
2019-05-19T13:33:05.687Z,1.62
2019-05-19T13:35:36.008Z,1.47
2019-05-19T13:38:06.375Z,1.55
2019-05-19T13:40:36.600Z,1.50
2019-05-19T13:43:07.186Z,1.30
2019-05-19T13:45:37.423Z,1.40
2019-05-19T13:48:07.526Z,1.30
2019-05-19T13:50:38.575Z,1.70
2019-05-19T13:53:08.902Z,1.30
2019-05-19T13:55:39.282Z,1.40
2019-05-19T13:58:09.467Z,1.10
2019-05-19T14:00:39.567Z,1.30
2019-05-19T14:03:09.804Z,1.50
2019-05-19T14:05:39.986Z,1.50
2019-05-19T14:08:10.277Z,1.60
2019-05-19T14:10:40.717Z,1.50
2019-05-19T14:13:16.625Z,1.70
2019-05-19T14:15:46.952Z,1.80
2019-05-19T14:18:17.183Z,1.82
2019-05-19T14:20:47.460Z,1.55
2019-05-19T14:23:17.729Z,1.50
2019-05-19T14:25:47.976Z,1.27
2019-05-19T14:28:18.153Z,1.20
2019-05-19T14:30:48.366Z,1.20
2019-05-19T14:33:18.653Z,1.07
2019-05-19T14:35:48.913Z,0.93
2019-05-19T14:38:19.125Z,1.15
2019-05-19T14:40:49.241Z,1.10
2019-05-19T14:43:23.680Z,1.00
2019-05-19T14:45:53.977Z,1.00
2019-05-19T14:48:24.124Z,1.45
2019-05-19T14:50:54.565Z,1.12
2019-05-19T14:53:24.850Z,0.78
2019-05-19T14:55:55.153Z,1.27
2019-05-19T14:58:25.322Z,1.20
2019-05-19T15:00:55.458Z,1.20
2019-05-19T15:03:25.475Z,1.30
2019-05-19T15:05:55.516Z,1.05
2019-05-19T15:08:25.452Z,1.10
2019-05-19T15:10:55.556Z,1.20
2019-05-19T15:13:25.747Z,1.20
2019-05-19T15:15:58.008Z,1.20
2019-05-19T15:18:27.828Z,1.20
2019-05-19T15:20:57.955Z,1.27
2019-05-19T15:23:28.380Z,1.30
2019-05-19T15:25:58.430Z,1.35
2019-05-19T15:28:28.683Z,1.35
2019-05-19T15:30:59.005Z,1.20
2019-05-19T15:33:37.057Z,1.30
2019-05-19T15:36:01.094Z,1.52
2019-05-19T15:38:31.521Z,1.25
2019-05-19T15:41:01.817Z,1.30
2019-05-19T15:43:32.072Z,1.60
2019-05-19T15:46:02.330Z,1.20
2019-05-19T15:48:32.470Z,1.55
2019-05-19T15:51:02.707Z,1.67
2019-05-19T15:53:32.982Z,1.70
2019-05-19T15:56:03.289Z,1.90
2019-05-19T15:58:33.414Z,1.67
2019-05-19T16:01:03.911Z,1.70
2019-05-19T16:03:34.083Z,1.80
2019-05-19T16:06:04.292Z,1.98
2019-05-19T16:08:34.296Z,1.80
2019-05-19T16:11:04.522Z,1.82
2019-05-19T16:13:34.728Z,1.90
2019-05-19T16:16:05.289Z,2.00
2019-05-19T16:18:35.525Z,1.80
2019-05-19T16:21:05.897Z,2.02
2019-05-19T16:23:36.031Z,2.12
2019-05-19T16:26:06.109Z,2.10
2019-05-19T16:28:36.319Z,2.05
2019-05-19T16:31:06.428Z,1.87
2019-05-19T16:33:36.575Z,2.15
2019-05-19T16:36:07.996Z,2.10
2019-05-19T16:38:38.477Z,2.17
2019-05-19T16:41:08.724Z,1.90
2019-05-19T16:43:38.905Z,2.00
2019-05-19T16:46:09.304Z,1.87
2019-05-19T16:48:39.424Z,2.30
2019-05-19T16:51:09.618Z,2.40
2019-05-19T16:53:39.664Z,2.70
2019-05-19T16:56:09.778Z,2.30
2019-05-19T16:58:45.197Z,2.70
2019-05-19T17:01:11.926Z,2.87
2019-05-19T17:03:42.113Z,2.42
2019-05-19T17:06:12.276Z,2.50
2019-05-19T17:08:42.404Z,2.95
2019-05-19T17:11:18.311Z,3.10
2019-05-19T17:13:44.079Z,3.33
2019-05-19T17:16:14.153Z,2.62
2019-05-19T17:18:44.088Z,2.52
2019-05-19T17:21:14.255Z,2.75
2019-05-19T17:23:44.491Z,2.95
2019-05-19T17:26:14.490Z,3.33
2019-05-19T17:28:57.620Z,4.78
2019-05-19T17:31:16.391Z,3.77
2019-05-19T17:33:46.518Z,3.55
2019-05-19T17:36:16.715Z,3.45
2019-05-19T17:38:47.020Z,3.30
2019-05-19T17:41:17.095Z,3.45
2019-05-19T17:43:47.367Z,3.27
2019-05-19T17:46:17.592Z,3.77
2019-05-19T17:48:47.812Z,4.08
2019-05-19T17:51:18.101Z,4.50
2019-05-19T17:53:48.327Z,5.65
2019-05-19T17:56:19.123Z,6.87
2019-05-19T17:58:49.652Z,6.70
2019-05-19T18:01:20.031Z,7.30
2019-05-19T18:03:51.342Z,7.40
2019-05-19T18:06:21.568Z,8.03
2019-05-19T18:08:51.867Z,7.65
2019-05-19T18:11:22.127Z,8.23
2019-05-19T18:13:52.450Z,8.25
2019-05-19T18:16:22.671Z,8.80
2019-05-19T18:18:52.733Z,8.78
2019-05-19T18:21:23.027Z,8.68
2019-05-19T18:23:53.303Z,7.97
2019-05-19T18:26:23.614Z,8.20
2019-05-19T18:28:53.927Z,8.95
2019-05-19T18:31:24.065Z,7.60
2019-05-19T18:33:54.216Z,8.05
2019-05-19T18:36:24.581Z,8.50
2019-05-19T18:38:54.708Z,8.60
2019-05-19T18:41:25.140Z,9.08
2019-05-19T18:43:55.482Z,10.00
2019-05-19T18:46:25.847Z,9.80
2019-05-19T18:48:56.262Z,9.10
2019-05-19T18:51:26.532Z,10.38
2019-05-19T18:53:56.933Z,10.70
2019-05-19T18:56:27.233Z,13.20
2019-05-19T18:58:57.401Z,12.43
2019-05-19T19:01:27.680Z,12.88
2019-05-19T19:03:58.025Z,13.53
2019-05-19T19:06:31.273Z,13.95
2019-05-19T19:09:01.520Z,13.68
2019-05-19T19:11:31.741Z,13.48
2019-05-19T19:14:02.208Z,15.18
2019-05-19T19:16:32.494Z,13.50
2019-05-19T19:19:02.961Z,14.68
2019-05-19T19:21:33.261Z,16.07
2019-05-19T19:24:03.542Z,15.70
2019-05-19T19:26:33.617Z,15.88
2019-05-19T19:29:04.092Z,15.90
2019-05-19T19:31:47.703Z,16.70
2019-05-19T19:34:06.006Z,16.30
2019-05-19T19:36:36.378Z,16.77
2019-05-19T19:39:07.643Z,16.45
2019-05-19T19:41:38.009Z,17.50
2019-05-19T19:44:08.210Z,18.48
2019-05-19T19:46:38.190Z,17.37
2019-05-19T19:49:08.056Z,18.35
2019-05-19T19:51:37.705Z,18.00
2019-05-19T19:54:07.343Z,18.55
2019-05-19T19:56:37.119Z,20.68
2019-05-19T19:59:07.177Z,20.23
2019-05-19T20:01:36.812Z,20.43
2019-05-19T20:04:06.484Z,21.73
2019-05-19T20:06:36.060Z,24.20
2019-05-19T20:09:07.666Z,25.17
2019-05-19T20:11:37.239Z,26.23
2019-05-19T20:14:07.057Z,27.75
2019-05-19T20:16:36.717Z,26.85
2019-05-19T20:19:06.392Z,29.42
2019-05-19T20:21:36.082Z,29.32
2019-05-19T20:24:05.737Z,31.07
2019-05-19T20:26:35.426Z,30.80
2019-05-19T20:29:05.011Z,30.05
2019-05-19T20:31:34.596Z,31.52
2019-05-19T20:34:04.395Z,31.40
2019-05-19T20:36:34.078Z,32.15
2019-05-19T20:39:04.994Z,33.53
2019-05-19T20:41:34.570Z,34.27
2019-05-19T20:44:04.771Z,35.90
2019-05-19T20:46:34.531Z,34.48
2019-05-19T20:49:04.339Z,34.18
2019-05-19T20:51:34.033Z,36.03
2019-05-19T20:54:03.762Z,33.53
2019-05-19T20:56:33.371Z,33.63
2019-05-19T20:59:03.060Z,33.90
2019-05-19T21:01:32.689Z,35.58
2019-05-19T21:04:02.391Z,34.30
2019-05-19T21:06:32.097Z,33.42
2019-05-19T21:09:01.681Z,32.53
2019-05-19T21:11:31.280Z,33.85
2019-05-19T21:14:00.922Z,32.60
2019-05-19T21:16:30.521Z,33.10
2019-05-19T21:19:00.322Z,33.53
2019-05-19T21:21:30.043Z,33.98
2019-05-19T21:23:59.676Z,34.85
2019-05-19T21:26:29.285Z,34.88
2019-05-19T21:28:58.991Z,33.98
2019-05-19T21:31:28.691Z,32.15
2019-05-19T21:33:58.300Z,33.40
2019-05-19T21:36:27.989Z,34.25
2019-05-19T21:38:57.566Z,33.33
2019-05-19T21:41:27.317Z,32.67
2019-05-19T21:43:56.949Z,32.45
2019-05-19T21:46:26.589Z,31.07
2019-05-19T21:48:56.302Z,30.45
2019-05-19T21:51:25.876Z,29.70
2019-05-19T21:53:55.418Z,29.55
2019-05-19T21:56:25.159Z,28.27
2019-05-19T21:58:54.908Z,27.55
2019-05-19T22:01:24.437Z,27.67
2019-05-19T22:03:54.032Z,27.42
2019-05-19T22:06:25.358Z,26.42
2019-05-19T22:08:55.130Z,26.70
2019-05-19T22:11:24.719Z,26.93
2019-05-19T22:13:54.341Z,26.60
2019-05-19T22:16:24.088Z,27.20
2019-05-19T22:18:53.803Z,25.68
2019-05-19T22:21:23.427Z,26.12
2019-05-19T22:23:53.081Z,26.12
2019-05-19T22:26:23.314Z,25.72
2019-05-19T22:28:52.996Z,24.20
2019-05-19T22:31:36.031Z,24.77
2019-05-19T22:33:53.968Z,25.52
2019-05-19T22:36:23.615Z,24.77
2019-05-19T22:38:53.338Z,22.65
2019-05-19T22:41:22.997Z,24.67
2019-05-19T22:43:53.124Z,24.07
2019-05-19T22:46:22.855Z,25.40
2019-05-19T22:48:52.541Z,25.90
2019-05-19T22:51:22.883Z,26.27
2019-05-19T22:53:52.874Z,27.27
2019-05-19T22:56:22.599Z,27.25
2019-05-19T22:58:52.330Z,26.62
2019-05-19T23:01:22.006Z,27.07
2019-05-19T23:03:51.704Z,26.73
2019-05-19T23:06:21.377Z,26.60
2019-05-19T23:08:51.120Z,28.85
2019-05-19T23:11:20.757Z,29.15
2019-05-19T23:13:50.572Z,29.92
2019-05-19T23:16:20.336Z,28.77
2019-05-19T23:18:50.158Z,28.32
2019-05-19T23:21:19.924Z,28.77
2019-05-19T23:23:49.504Z,28.05
2019-05-19T23:26:19.136Z,31.07
2019-05-19T23:28:48.692Z,31.70
2019-05-19T23:31:18.360Z,32.03
2019-05-19T23:33:48.016Z,28.67
2019-05-19T23:36:17.609Z,28.20
2019-05-19T23:38:47.298Z,27.95
2019-05-19T23:41:16.968Z,28.57
2019-05-19T23:43:46.577Z,28.27
2019-05-19T23:46:16.342Z,28.90
2019-05-19T23:48:45.903Z,25.23
2019-05-19T23:51:15.573Z,27.87
2019-05-19T23:53:45.340Z,26.52
2019-05-19T23:56:15.124Z,30.05
2019-05-19T23:58:44.771Z,28.67
